sensor_id;sensor_type;location;lat;lon;timestamp;pressure;altitude;pressure_sealevel;temperature;humidity
5872;BME280;2962;51.312;7.378;2022-07-22T00:00:16;97990.25;;;15.38;100.00
5872;BME280;2962;51.312;7.378;2022-07-22T00:02:42;97991.81;;;15.35;100.00
5872;BME280;2962;51.312;7.378;2022-07-22T00:05:08;97993.78;;;15.38;100.00
5872;BME280;2962;51.312;7.378;2022-07-22T00:07:35;97991.41;;;15.37;100.00
5872;BME280;2962;51.312;7.378;2022-07-22T00:10:00;97991.78;;;15.32;100.00
5872;BME280;2962;51.312;7.378;2022-07-22T00:12:26;97986.69;;;15.30;100.00
5872;BME280;2962;51.312;7.378;2022-07-22T00:14:51;97998.03;;;15.25;100.00
5872;BME280;2962;51.312;7.378;2022-07-22T00:17:16;97991.81;;;15.39;100.00
5872;BME280;2962;51.312;7.378;2022-07-22T00:19:42;97996.16;;;15.44;100.00
5872;BME280;2962;51.312;7.378;2022-07-22T00:22:07;97993.84;;;15.49;100.00
5872;BME280;2962;51.312;7.378;2022-07-22T00:24:32;97996.56;;;15.56;100.00
5872;BME280;2962;51.312;7.378;2022-07-22T00:26:58;97993.41;;;15.44;100.00
5872;BME280;2962;51.312;7.378;2022-07-22T00:29:23;97988.34;;;15.53;100.00
5872;BME280;2962;51.312;7.378;2022-07-22T00:31:48;97976.19;;;15.50;100.00
5872;BME280;2962;51.312;7.378;2022-07-22T00:34:13;97971.50;;;15.58;100.00
5872;BME280;2962;51.312;7.378;2022-07-22T00:36:39;97987.53;;;15.52;100.00
5872;BME280;2962;51.312;7.378;2022-07-22T00:39:04;97982.41;;;15.44;100.00
5872;BME280;2962;51.312;7.378;2022-07-22T00:41:29;97977.31;;;15.42;100.00
5872;BME280;2962;51.312;7.378;2022-07-22T00:44:00;97984.81;;;15.59;100.00
5872;BME280;2962;51.312;7.378;2022-07-22T00:46:26;97978.53;;;15.59;100.00
5872;BME280;2962;51.312;7.378;2022-07-22T00:48:52;97975.41;;;15.50;100.00
5872;BME280;2962;51.312;7.378;2022-07-22T00:51:18;97976.97;;;15.51;100.00
5872;BME280;2962;51.312;7.378;2022-07-22T00:53:44;97969.41;;;15.19;100.00
5872;BME280;2962;51.312;7.378;2022-07-22T00:56:10;97978.81;;;15.22;100.00
5872;BME280;2962;51.312;7.378;2022-07-22T00:58:36;97987.88;;;15.33;100.00
5872;BME280;2962;51.312;7.378;2022-07-22T01:01:01;97982.75;;;15.28;100.00
5872;BME280;2962;51.312;7.378;2022-07-22T01:03:26;97975.25;;;15.18;100.00
5872;BME280;2962;51.312;7.378;2022-07-22T01:05:52;97981.56;;;15.25;100.00
5872;BME280;2962;51.312;7.378;2022-07-22T01:08:17;97979.25;;;15.31;100.00
5872;BME280;2962;51.312;7.378;2022-07-22T01:10:43;97980.00;;;15.24;100.00
5872;BME280;2962;51.312;7.378;2022-07-22T01:13:08;97977.63;;;15.19;100.00
5872;BME280;2962;51.312;7.378;2022-07-22T01:15:33;97985.50;;;15.24;100.00
5872;BME280;2962;51.312;7.378;2022-07-22T01:17:59;97979.56;;;15.15;100.00
5872;BME280;2962;51.312;7.378;2022-07-22T01:20:24;97981.97;;;15.24;100.00
5872;BME280;2962;51.312;7.378;2022-07-22T01:22:51;97980.38;;;15.19;100.00
5872;BME280;2962;51.312;7.378;2022-07-22T01:25:16;97983.16;;;15.33;100.00
5872;BME280;2962;51.312;7.378;2022-07-22T01:27:41;97979.25;;;15.31;100.00
5872;BME280;2962;51.312;7.378;2022-07-22T01:30:07;97978.84;;;15.29;100.00
5872;BME280;2962;51.312;7.378;2022-07-22T01:32:33;97978.50;;;15.37;100.00
5872;BME280;2962;51.312;7.378;2022-07-22T01:34:58;97967.50;;;15.34;100.00
5872;BME280;2962;51.312;7.378;2022-07-22T01:37:24;97971.81;;;15.38;100.00
5872;BME280;2962;51.312;7.378;2022-07-22T01:39:49;97969.84;;;15.39;100.00
5872;BME280;2962;51.312;7.378;2022-07-22T01:42:15;97967.91;;;15.39;100.00
5872;BME280;2962;51.312;7.378;2022-07-22T01:44:40;97976.13;;;15.36;100.00
5872;BME280;2962;51.312;7.378;2022-07-22T01:47:06;97963.56;;;15.35;100.00
5872;BME280;2962;51.312;7.378;2022-07-22T01:49:32;97973.78;;;15.38;100.00
5872;BME280;2962;51.312;7.378;2022-07-22T01:51:58;97965.91;;;15.33;100.00
5872;BME280;2962;51.312;7.378;2022-07-22T01:54:23;97968.25;;;15.27;100.00
5872;BME280;2962;51.312;7.378;2022-07-22T01:56:49;97968.63;;;15.29;100.00
5872;BME280;2962;51.312;7.378;2022-07-22T01:59:14;97968.63;;;15.26;100.00
5872;BME280;2962;51.312;7.378;2022-07-22T02:01:39;97971.06;;;15.42;100.00
5872;BME280;2962;51.312;7.378;2022-07-22T02:04:04;97973.75;;;15.31;100.00
5872;BME280;2962;51.312;7.378;2022-07-22T02:06:30;97968.66;;;15.33;100.00
5872;BME280;2962;51.312;7.378;2022-07-22T02:08:56;97977.25;;;15.24;100.00
5872;BME280;2962;51.312;7.378;2022-07-22T02:11:21;97975.69;;;15.27;100.00
5872;BME280;2962;51.312;7.378;2022-07-22T02:13:47;97973.00;;;15.45;100.00
5872;BME280;2962;51.312;7.378;2022-07-22T02:16:12;97973.81;;;15.45;100.00
5872;BME280;2962;51.312;7.378;2022-07-22T02:18:37;97970.53;;;15.18;100.00
5872;BME280;2962;51.312;7.378;2022-07-22T02:21:03;97973.66;;;15.09;100.00
5872;BME280;2962;51.312;7.378;2022-07-22T02:23:28;97974.44;;;15.10;100.00
5872;BME280;2962;51.312;7.378;2022-07-22T02:25:54;97968.44;;;14.86;100.00
5872;BME280;2962;51.312;7.378;2022-07-22T02:28:19;97975.91;;;14.89;100.00
5872;BME280;2962;51.312;7.378;2022-07-22T02:30:44;97974.34;;;14.88;100.00
5872;BME280;2962;51.312;7.378;2022-07-22T02:33:10;97972.38;;;14.89;100.00
5872;BME280;2962;51.312;7.378;2022-07-22T02:35:35;97964.19;;;14.96;100.00
5872;BME280;2962;51.312;7.378;2022-07-22T02:38:00;97965.38;;;15.02;100.00
5872;BME280;2962;51.312;7.378;2022-07-22T02:40:25;97957.94;;;14.99;100.00
5872;BME280;2962;51.312;7.378;2022-07-22T02:42:51;97966.63;;;15.12;100.00
5872;BME280;2962;51.312;7.378;2022-07-22T02:45:16;97962.63;;;15.02;100.00
5872;BME280;2962;51.312;7.378;2022-07-22T02:47:46;97965.75;;;14.97;100.00
5872;BME280;2962;51.312;7.378;2022-07-22T02:50:12;97959.88;;;14.99;100.00
5872;BME280;2962;51.312;7.378;2022-07-22T02:52:37;97952.47;;;14.99;100.00
5872;BME280;2962;51.312;7.378;2022-07-22T02:55:03;97950.47;;;14.96;100.00
5872;BME280;2962;51.312;7.378;2022-07-22T02:57:28;97955.56;;;14.94;100.00
5872;BME280;2962;51.312;7.378;2022-07-22T02:59:53;97961.78;;;14.84;100.00
5872;BME280;2962;51.312;7.378;2022-07-22T03:02:19;97959.47;;;14.93;100.00
5872;BME280;2962;51.312;7.378;2022-07-22T03:04:44;97961.84;;;14.98;100.00
5872;BME280;2962;51.312;7.378;2022-07-22T03:07:09;97958.34;;;15.05;100.00
5872;BME280;2962;51.312;7.378;2022-07-22T03:09:34;97968.16;;;15.09;100.00
5872;BME280;2962;51.312;7.378;2022-07-22T03:12:00;97967.28;;;14.91;100.00
5872;BME280;2962;51.312;7.378;2022-07-22T03:14:25;97960.16;;;14.76;100.00
5872;BME280;2962;51.312;7.378;2022-07-22T03:16:51;97975.94;;;14.97;100.00
5872;BME280;2962;51.312;7.378;2022-07-22T03:19:16;97965.00;;;15.00;100.00
5872;BME280;2962;51.312;7.378;2022-07-22T03:21:41;97983.41;;;14.96;100.00
5872;BME280;2962;51.312;7.378;2022-07-22T03:24:07;97975.22;;;15.03;100.00
5872;BME280;2962;51.312;7.378;2022-07-22T03:26:32;97977.53;;;15.01;100.00
5872;BME280;2962;51.312;7.378;2022-07-22T03:28:57;97981.34;;;14.82;100.00
5872;BME280;2962;51.312;7.378;2022-07-22T03:31:22;97974.44;;;15.10;100.00
5872;BME280;2962;51.312;7.378;2022-07-22T03:33:48;97975.22;;;15.07;100.00
5872;BME280;2962;51.312;7.378;2022-07-22T03:36:13;97974.47;;;15.17;100.00
5872;BME280;2962;51.312;7.378;2022-07-22T03:38:38;97971.75;;;15.21;100.00
5872;BME280;2962;51.312;7.378;2022-07-22T03:41:04;97973.31;;;15.22;100.00
5872;BME280;2962;51.312;7.378;2022-07-22T03:43:30;97979.19;;;15.17;100.00
5872;BME280;2962;51.312;7.378;2022-07-22T03:45:55;97975.53;;;14.87;100.00
5872;BME280;2962;51.312;7.378;2022-07-22T03:48:20;97979.09;;;14.95;100.00
5872;BME280;2962;51.312;7.378;2022-07-22T03:50:45;97973.63;;;15.06;100.00
5872;BME280;2962;51.312;7.378;2022-07-22T03:53:11;97978.31;;;14.98;100.00
5872;BME280;2962;51.312;7.378;2022-07-22T03:55:36;97977.63;;;15.16;100.00
5872;BME280;2962;51.312;7.378;2022-07-22T03:58:02;97968.63;;;15.19;100.00
5872;BME280;2962;51.312;7.378;2022-07-22T04:00:27;97972.19;;;15.30;100.00
5872;BME280;2962;51.312;7.378;2022-07-22T04:02:52;97972.19;;;15.30;100.00
5872;BME280;2962;51.312;7.378;2022-07-22T04:05:18;97976.84;;;15.19;100.00
5872;BME280;2962;51.312;7.378;2022-07-22T04:07:43;97972.09;;;15.08;100.00
5872;BME280;2962;51.312;7.378;2022-07-22T04:10:09;97972.06;;;15.05;100.00
5872;BME280;2962;51.312;7.378;2022-07-22T04:12:35;97972.13;;;15.16;100.00
5872;BME280;2962;51.312;7.378;2022-07-22T04:15:01;97981.56;;;15.29;100.00
5872;BME280;2962;51.312;7.378;2022-07-22T04:17:27;97976.13;;;15.36;100.00
5872;BME280;2962;51.312;7.378;2022-07-22T04:19:52;97978.88;;;15.36;100.00
5872;BME280;2962;51.312;7.378;2022-07-22T04:22:18;97979.63;;;15.33;100.00
5872;BME280;2962;51.312;7.378;2022-07-22T04:24:43;97980.44;;;15.37;100.00
5872;BME280;2962;51.312;7.378;2022-07-22T04:27:08;97977.31;;;15.35;100.00
5872;BME280;2962;51.312;7.378;2022-07-22T04:29:33;97978.09;;;15.35;100.00
5872;BME280;2962;51.312;7.378;2022-07-22T04:31:59;97974.94;;;15.30;100.00
5872;BME280;2962;51.312;7.378;2022-07-22T04:34:24;97981.22;;;15.34;100.00
5872;BME280;2962;51.312;7.378;2022-07-22T04:36:50;97967.06;;;15.25;100.00
5872;BME280;2962;51.312;7.378;2022-07-22T04:39:15;97972.56;;;15.32;100.00
5872;BME280;2962;51.312;7.378;2022-07-22T04:41:40;97965.09;;;15.29;100.00
5872;BME280;2962;51.312;7.378;2022-07-22T04:44:05;97975.69;;;15.23;100.00
5872;BME280;2962;51.312;7.378;2022-07-22T04:46:31;97972.19;;;15.33;100.00
5872;BME280;2962;51.312;7.378;2022-07-22T04:48:56;97967.50;;;15.41;100.00
5872;BME280;2962;51.312;7.378;2022-07-22T04:51:21;97962.75;;;15.27;100.00
5872;BME280;2962;51.312;7.378;2022-07-22T04:53:47;97972.13;;;15.16;100.00
5872;BME280;2962;51.312;7.378;2022-07-22T04:56:12;97964.56;;;14.95;100.00
5872;BME280;2962;51.312;7.378;2022-07-22T04:58:37;97969.16;;;14.73;100.00
5872;BME280;2962;51.312;7.378;2022-07-22T05:01:03;97971.41;;;14.60;100.00
5872;BME280;2962;51.312;7.378;2022-07-22T05:03:28;97963.06;;;14.42;100.00
5872;BME280;2962;51.312;7.378;2022-07-22T05:05:53;97964.13;;;14.27;100.00
5872;BME280;2962;51.312;7.378;2022-07-22T05:08:19;97972.63;;;14.14;100.00
5872;BME280;2962;51.312;7.378;2022-07-22T05:10:44;97973.84;;;14.21;100.00
5872;BME280;2962;51.312;7.378;2022-07-22T05:13:12;97962.09;;;14.20;100.00
5872;BME280;2962;51.312;7.378;2022-07-22T05:15:37;97977.88;;;14.34;100.00
5872;BME280;2962;51.312;7.378;2022-07-22T05:18:03;97974.69;;;14.28;100.00
5872;BME280;2962;51.312;7.378;2022-07-22T05:20:28;97979.38;;;14.28;100.00
5872;BME280;2962;51.312;7.378;2022-07-22T05:22:53;97982.91;;;14.28;100.00
5872;BME280;2962;51.312;7.378;2022-07-22T05:25:18;97982.13;;;14.28;100.00
5872;BME280;2962;51.312;7.378;2022-07-22T05:27:54;97973.13;;;14.27;100.00
5872;BME280;2962;51.312;7.378;2022-07-22T05:30:20;97984.13;;;14.31;100.00
5872;BME280;2962;51.312;7.378;2022-07-22T05:32:45;97977.47;;;14.32;100.00
5872;BME280;2962;51.312;7.378;2022-07-22T05:35:11;97981.47;;;14.45;100.00
5872;BME280;2962;51.312;7.378;2022-07-22T05:37:36;97983.50;;;14.52;100.00
5872;BME280;2962;51.312;7.378;2022-07-22T05:40:02;97985.91;;;14.60;100.00
5872;BME280;2962;51.312;7.378;2022-07-22T05:42:27;97993.06;;;14.76;100.00
5872;BME280;2962;51.312;7.378;2022-07-22T05:44:53;97991.78;;;14.59;100.00
5872;BME280;2962;51.312;7.378;2022-07-22T05:47:18;97984.41;;;14.67;100.00
5872;BME280;2962;51.312;7.378;2022-07-22T05:49:43;97986.41;;;14.73;100.00
5872;BME280;2962;51.312;7.378;2022-07-22T05:52:08;97992.31;;;14.82;100.00
5872;BME280;2962;51.312;7.378;2022-07-22T05:54:34;97990.13;;;15.09;100.00
5872;BME280;2962;51.312;7.378;2022-07-22T05:56:59;97979.91;;;14.99;100.00
5872;BME280;2962;51.312;7.378;2022-07-22T05:59:24;97989.66;;;14.93;100.00
5872;BME280;2962;51.312;7.378;2022-07-22T06:01:50;97983.72;;;14.80;100.00
5872;BME280;2962;51.312;7.378;2022-07-22T06:04:15;97976.38;;;15.02;100.00
5872;BME280;2962;51.312;7.378;2022-07-22T06:06:40;97982.34;;;15.26;100.00
5872;BME280;2962;51.312;7.378;2022-07-22T06:09:06;97979.22;;;15.27;100.00
5872;BME280;2962;51.312;7.378;2022-07-22T06:11:31;97967.47;;;15.27;100.00
5872;BME280;2962;51.312;7.378;2022-07-22T06:13:56;97975.34;;;15.35;100.00
5872;BME280;2962;51.312;7.378;2022-07-22T06:16:21;97975.22;;;15.07;100.00
5872;BME280;2962;51.312;7.378;2022-07-22T06:18:47;97971.72;;;15.13;100.00
5872;BME280;2962;51.312;7.378;2022-07-22T06:21:12;97976.09;;;15.29;100.00
5872;BME280;2962;51.312;7.378;2022-07-22T06:23:37;97975.28;;;15.25;100.00
5872;BME280;2962;51.312;7.378;2022-07-22T06:26:03;97981.25;;;15.45;100.00
5872;BME280;2962;51.312;7.378;2022-07-22T06:28:28;97976.53;;;15.38;100.00
5872;BME280;2962;51.312;7.378;2022-07-22T06:30:53;97974.19;;;15.47;100.00
5872;BME280;2962;51.312;7.378;2022-07-22T06:33:18;97971.75;;;15.21;100.00
5872;BME280;2962;51.312;7.378;2022-07-22T06:35:44;97968.69;;;15.40;100.00
5872;BME280;2962;51.312;7.378;2022-07-22T06:38:09;97972.59;;;15.39;100.00
5872;BME280;2962;51.312;7.378;2022-07-22T06:40:35;97973.81;;;15.45;100.00
5872;BME280;2962;51.312;7.378;2022-07-22T06:43:00;97982.47;;;15.61;100.00
5872;BME280;2962;51.312;7.378;2022-07-22T06:45:26;97978.50;;;15.48;100.00
5872;BME280;2962;51.312;7.378;2022-07-22T06:47:51;97983.25;;;15.58;100.00
5872;BME280;2962;51.312;7.378;2022-07-22T06:50:17;97983.69;;;15.68;100.00
5872;BME280;2962;51.312;7.378;2022-07-22T06:52:42;97968.00;;;15.75;100.00
5872;BME280;2962;51.312;7.378;2022-07-22T06:55:09;97976.66;;;15.70;100.00
5872;BME280;2962;51.312;7.378;2022-07-22T06:57:34;97972.34;;;15.73;100.00
5872;BME280;2962;51.312;7.378;2022-07-22T07:00:00;97969.59;;;15.73;100.00
5872;BME280;2962;51.312;7.378;2022-07-22T07:02:25;97969.22;;;15.78;100.00
5872;BME280;2962;51.312;7.378;2022-07-22T07:04:51;97966.06;;;15.90;100.00
5872;BME280;2962;51.312;7.378;2022-07-22T07:07:16;97969.63;;;15.98;100.00
5872;BME280;2962;51.312;7.378;2022-07-22T07:09:41;97973.94;;;15.99;100.00
5872;BME280;2962;51.312;7.378;2022-07-22T07:12:08;97967.66;;;15.98;100.00
5872;BME280;2962;51.312;7.378;2022-07-22T07:14:33;97967.66;;;16.05;100.00
5872;BME280;2962;51.312;7.378;2022-07-22T07:16:58;97967.69;;;16.20;100.00
5872;BME280;2962;51.312;7.378;2022-07-22T07:19:24;97960.22;;;16.31;100.00
5872;BME280;2962;51.312;7.378;2022-07-22T07:21:49;97963.34;;;16.33;100.00
5872;BME280;2962;51.312;7.378;2022-07-22T07:24:14;97949.59;;;16.33;100.00
5872;BME280;2962;51.312;7.378;2022-07-22T07:26:39;97945.69;;;16.34;100.00
5872;BME280;2962;51.312;7.378;2022-07-22T07:29:05;97945.66;;;16.45;100.00
5872;BME280;2962;51.312;7.378;2022-07-22T07:31:30;97953.09;;;16.73;100.00
5872;BME280;2962;51.312;7.378;2022-07-22T07:33:55;97946.78;;;16.87;100.00
5872;BME280;2962;51.312;7.378;2022-07-22T07:36:21;97952.69;;;16.85;100.00
5872;BME280;2962;51.312;7.378;2022-07-22T07:38:47;97951.50;;;16.79;100.00
5872;BME280;2962;51.312;7.378;2022-07-22T07:41:12;97948.75;;;16.86;100.00
5872;BME280;2962;51.312;7.378;2022-07-22T07:43:38;97950.72;;;16.86;100.00
5872;BME280;2962;51.312;7.378;2022-07-22T07:46:03;97961.31;;;16.87;100.00
5872;BME280;2962;51.312;7.378;2022-07-22T07:48:28;97950.34;;;16.58;100.00
5872;BME280;2962;51.312;7.378;2022-07-22T07:50:54;97952.34;;;16.54;100.00
5872;BME280;2962;51.312;7.378;2022-07-22T07:53:19;97950.00;;;16.49;100.00
5872;BME280;2962;51.312;7.378;2022-07-22T07:55:44;97955.50;;;16.28;100.00
5872;BME280;2962;51.312;7.378;2022-07-22T07:58:10;97955.91;;;16.26;100.00
5872;BME280;2962;51.312;7.378;2022-07-22T08:00:36;97965.34;;;16.15;100.00
5872;BME280;2962;51.312;7.378;2022-07-22T08:03:02;97961.00;;;16.28;100.00
5872;BME280;2962;51.312;7.378;2022-07-22T08:05:29;97966.50;;;16.35;100.00
5872;BME280;2962;51.312;7.378;2022-07-22T08:07:54;97959.78;;;16.75;100.00
5872;BME280;2962;51.312;7.378;2022-07-22T08:10:20;97965.28;;;16.82;100.00
5872;BME280;2962;51.312;7.378;2022-07-22T08:12:45;97948.72;;;17.00;100.00
5872;BME280;2962;51.312;7.378;2022-07-22T08:15:11;97941.66;;;16.92;100.00
5872;BME280;2962;51.312;7.378;2022-07-22T08:17:36;97947.06;;;17.14;100.00
5872;BME280;2962;51.312;7.378;2022-07-22T08:20:04;97950.25;;;17.08;100.00
5872;BME280;2962;51.312;7.378;2022-07-22T08:22:30;97951.13;;;16.80;100.00
5872;BME280;2962;51.312;7.378;2022-07-22T08:24:55;97937.78;;;16.65;100.00
5872;BME280;2962;51.312;7.378;2022-07-22T08:27:20;97947.59;;;16.58;100.00
5872;BME280;2962;51.312;7.378;2022-07-22T08:29:46;97946.81;;;16.69;100.00
5872;BME280;2962;51.312;7.378;2022-07-22T08:32:11;97951.16;;;16.77;100.00
5872;BME280;2962;51.312;7.378;2022-07-22T08:34:36;97940.94;;;16.49;100.00
5872;BME280;2962;51.312;7.378;2022-07-22T08:37:02;97949.16;;;16.70;100.00
5872;BME280;2962;51.312;7.378;2022-07-22T08:39:27;97947.19;;;16.64;100.00
5872;BME280;2962;51.312;7.378;2022-07-22T08:41:53;97953.03;;;16.94;100.00
5872;BME280;2962;51.312;7.378;2022-07-22T08:44:19;97960.50;;;17.01;100.00
5872;BME280;2962;51.312;7.378;2022-07-22T08:46:45;97957.41;;;16.81;100.00
5872;BME280;2962;51.312;7.378;2022-07-22T08:49:14;97953.47;;;16.86;100.00
5872;BME280;2962;51.312;7.378;2022-07-22T08:51:39;97957.00;;;16.90;100.00
5872;BME280;2962;51.312;7.378;2022-07-22T08:54:05;97952.28;;;16.90;100.00
5872;BME280;2962;51.312;7.378;2022-07-22T08:56:30;97961.31;;;16.94;100.00
5872;BME280;2962;51.312;7.378;2022-07-22T08:58:55;97953.13;;;16.76;100.00
5872;BME280;2962;51.312;7.378;2022-07-22T09:01:21;97958.59;;;16.80;100.00
5872;BME280;2962;51.312;7.378;2022-07-22T09:03:51;97961.72;;;16.89;100.00
5872;BME280;2962;51.312;7.378;2022-07-22T09:06:19;97962.50;;;16.86;100.00
5872;BME280;2962;51.312;7.378;2022-07-22T09:08:56;97962.16;;;16.45;100.00
5872;BME280;2962;51.312;7.378;2022-07-22T09:11:23;97966.13;;;16.26;100.00
5872;BME280;2962;51.312;7.378;2022-07-22T09:13:50;97969.22;;;16.10;100.00
5872;BME280;2962;51.312;7.378;2022-07-22T09:16:15;97967.69;;;16.20;100.00
5872;BME280;2962;51.312;7.378;2022-07-22T09:18:49;97969.97;;;16.68;100.00
5872;BME280;2962;51.312;7.378;2022-07-22T09:21:16;97965.28;;;16.82;100.00
5872;BME280;2962;51.312;7.378;2022-07-22T09:23:42;97965.25;;;16.90;100.00
5872;BME280;2962;51.312;7.378;2022-07-22T09:26:08;97964.06;;;16.91;100.00
5872;BME280;2962;51.312;7.378;2022-07-22T09:28:34;97964.88;;;16.91;100.00
5872;BME280;2962;51.312;7.378;2022-07-22T09:30:59;97966.47;;;16.74;100.00
5872;BME280;2962;51.312;7.378;2022-07-22T09:33:25;97961.72;;;16.86;100.00
5872;BME280;2962;51.312;7.378;2022-07-22T09:35:52;97958.63;;;16.76;100.00
5872;BME280;2962;51.312;7.378;2022-07-22T09:38:29;97947.53;;;16.98;100.00
5872;BME280;2962;51.312;7.378;2022-07-22T09:40:55;97960.50;;;16.97;100.00
5872;BME280;2962;51.312;7.378;2022-07-22T09:43:20;97957.72;;;17.08;100.00
5872;BME280;2962;51.312;7.378;2022-07-22T09:45:49;97965.19;;;17.18;100.00
5872;BME280;2962;51.312;7.378;2022-07-22T09:48:16;97973.03;;;17.13;100.00
5872;BME280;2962;51.312;7.378;2022-07-22T09:50:44;97967.53;;;17.20;100.00
5872;BME280;2962;51.312;7.378;2022-07-22T09:53:09;97963.94;;;17.33;100.00
5872;BME280;2962;51.312;7.378;2022-07-22T09:55:38;97961.94;;;17.41;100.00
5872;BME280;2962;51.312;7.378;2022-07-22T09:58:04;97963.63;;;17.87;100.00
5872;BME280;2962;51.312;7.378;2022-07-22T10:00:30;97962.75;;;17.31;100.00
5872;BME280;2962;51.312;7.378;2022-07-22T10:03:01;97970.94;;;17.49;100.00
5872;BME280;2962;51.312;7.378;2022-07-22T10:05:28;97969.94;;;17.11;100.00
5872;BME280;2962;51.312;7.378;2022-07-22T10:07:54;97971.47;;;17.19;100.00
5872;BME280;2962;51.312;7.378;2022-07-22T10:10:23;97970.69;;;17.15;100.00
5872;BME280;2962;51.312;7.378;2022-07-22T10:12:50;97961.53;;;17.39;100.00
5872;BME280;2962;51.312;7.378;2022-07-22T10:15:16;97967.34;;;17.55;100.00
5872;BME280;2962;51.312;7.378;2022-07-22T10:17:45;97955.59;;;17.48;100.00
5872;BME280;2962;51.312;7.378;2022-07-22T10:20:11;97957.22;;;17.38;100.00
5872;BME280;2962;51.312;7.378;2022-07-22T10:25:07;97954.19;;;17.11;100.00
5872;BME280;2962;51.312;7.378;2022-07-22T10:30:34;97950.66;;;17.11;100.00
5872;BME280;2962;51.312;7.378;2022-07-22T10:33:07;97946.16;;;17.45;100.00
5872;BME280;2962;51.312;7.378;2022-07-22T10:35:34;97941.50;;;17.35;100.00
5872;BME280;2962;51.312;7.378;2022-07-22T10:38:03;97950.34;;;16.80;100.00
5872;BME280;2962;51.312;7.378;2022-07-22T10:40:32;97942.88;;;16.63;100.00
5872;BME280;2962;51.312;7.378;2022-07-22T10:43:10;97938.94;;;16.64;100.00
5872;BME280;2962;51.312;7.378;2022-07-22T10:45:40;97938.50;;;16.97;100.00
5872;BME280;2962;51.312;7.378;2022-07-22T10:48:08;97928.19;;;17.23;100.00
5872;BME280;2962;51.312;7.378;2022-07-22T10:53:04;97927.28;;;17.40;100.00
5872;BME280;2962;51.312;7.378;2022-07-22T10:55:30;97925.28;;;17.48;100.00
5872;BME280;2962;51.312;7.378;2022-07-22T10:57:56;97920.91;;;17.57;100.00
5872;BME280;2962;51.312;7.378;2022-07-22T11:00:21;97913.16;;;17.97;100.00
5872;BME280;2962;51.312;7.378;2022-07-22T11:02:47;97924.28;;;17.83;100.00
5872;BME280;2962;51.312;7.378;2022-07-22T11:05:13;97912.72;;;18.02;100.00
5872;BME280;2962;51.312;7.378;2022-07-22T11:07:46;97904.50;;;18.40;100.00
5872;BME280;2962;51.312;7.378;2022-07-22T11:10:17;97912.94;;;18.64;100.00
5872;BME280;2962;51.312;7.378;2022-07-22T11:12:43;97903.50;;;18.65;100.00
5872;BME280;2962;51.312;7.378;2022-07-22T11:15:08;97906.69;;;18.60;100.00
5872;BME280;2962;51.312;7.378;2022-07-22T11:17:35;97914.38;;;18.41;100.00
5872;BME280;2962;51.312;7.378;2022-07-22T11:20:03;97911.84;;;18.58;100.00
5872;BME280;2962;51.312;7.378;2022-07-22T11:22:29;97922.59;;;18.45;100.00
5872;BME280;2962;51.312;7.378;2022-07-22T11:24:56;97916.88;;;18.66;100.00
5872;BME280;2962;51.312;7.378;2022-07-22T11:27:22;97921.81;;;18.86;100.00
5872;BME280;2962;51.312;7.378;2022-07-22T11:29:49;97926.69;;;19.09;100.00
5872;BME280;2962;51.312;7.378;2022-07-22T11:32:16;97917.34;;;19.30;100.00
5872;BME280;2962;51.312;7.378;2022-07-22T11:34:44;97917.72;;;18.60;100.00
5872;BME280;2962;51.312;7.378;2022-07-22T11:37:15;97921.53;;;18.35;100.00
5872;BME280;2962;51.312;7.378;2022-07-22T11:39:41;97926.28;;;18.76;100.00
5872;BME280;2962;51.312;7.378;2022-07-22T11:42:06;97903.56;;;18.95;100.00
5872;BME280;2962;51.312;7.378;2022-07-22T11:44:33;97911.03;;;19.29;100.00
5872;BME280;2962;51.312;7.378;2022-07-22T11:46:59;97919.13;;;19.13;100.00
5872;BME280;2962;51.312;7.378;2022-07-22T11:49:27;97915.47;;;19.23;100.00
5872;BME280;2962;51.312;7.378;2022-07-22T11:51:53;97910.56;;;19.34;100.00
5872;BME280;2962;51.312;7.378;2022-07-22T11:54:18;97910.84;;;19.13;100.00
5872;BME280;2962;51.312;7.378;2022-07-22T11:56:44;97908.38;;;19.22;100.00
5872;BME280;2962;51.312;7.378;2022-07-22T11:59:13;97908.06;;;18.82;100.00
5872;BME280;2962;51.312;7.378;2022-07-22T12:01:39;97909.63;;;19.44;100.00
5872;BME280;2962;51.312;7.378;2022-07-22T12:04:10;97900.50;;;19.78;100.00
5872;BME280;2962;51.312;7.378;2022-07-22T12:06:38;97894.13;;;19.23;100.00
5872;BME280;2962;51.312;7.378;2022-07-22T12:09:16;97891.53;;;19.40;100.00
5872;BME280;2962;51.312;7.378;2022-07-22T12:11:44;97898.66;;;20.18;100.00
5872;BME280;2962;51.312;7.378;2022-07-22T12:14:19;97891.16;;;20.19;100.00
5872;BME280;2962;51.312;7.378;2022-07-22T12:17:04;97891.06;;;20.46;100.00
5872;BME280;2962;51.312;7.378;2022-07-22T12:19:32;97890.34;;;21.61;100.00
5872;BME280;2962;51.312;7.378;2022-07-22T12:22:01;97880.88;;;22.40;100.00
5872;BME280;2962;51.312;7.378;2022-07-22T12:24:30;97860.94;;;22.46;100.00
5872;BME280;2962;51.312;7.378;2022-07-22T12:27:01;97863.53;;;22.36;100.00
5872;BME280;2962;51.312;7.378;2022-07-22T12:32:03;97864.97;;;22.57;100.00
5872;BME280;2962;51.312;7.378;2022-07-22T12:34:42;97868.78;;;22.93;100.00
5872;BME280;2962;51.312;7.378;2022-07-22T12:37:22;97866.13;;;22.14;100.00
5872;BME280;2962;51.312;7.378;2022-07-22T12:39:55;97860.53;;;21.29;100.00
5872;BME280;2962;51.312;7.378;2022-07-22T12:42:21;97860.59;;;21.45;100.00
5872;BME280;2962;51.312;7.378;2022-07-22T12:44:59;97860.06;;;21.34;100.00
5872;BME280;2962;51.312;7.378;2022-07-22T12:53:05;97852.22;;;20.53;100.00
5872;BME280;2962;51.312;7.378;2022-07-22T12:55:39;97858.25;;;20.44;100.00
5872;BME280;2962;51.312;7.378;2022-07-22T12:58:05;97867.06;;;20.39;100.00
5872;BME280;2962;51.312;7.378;2022-07-22T13:00:34;97865.50;;;20.82;100.00
5872;BME280;2962;51.312;7.378;2022-07-22T13:03:01;97860.44;;;20.33;100.00
5872;BME280;2962;51.312;7.378;2022-07-22T13:05:27;97861.75;;;20.72;100.00
5872;BME280;2962;51.312;7.378;2022-07-22T13:07:53;97845.47;;;21.30;100.00
5872;BME280;2962;51.312;7.378;2022-07-22T13:10:19;97839.69;;;22.68;100.00
5872;BME280;2962;51.312;7.378;2022-07-22T13:12:45;97841.44;;;24.19;100.00
5872;BME280;2962;51.312;7.378;2022-07-22T13:15:11;97841.97;;;25.76;100.00
5872;BME280;2962;51.312;7.378;2022-07-22T13:17:37;97828.41;;;27.16;100.00
5872;BME280;2962;51.312;7.378;2022-07-22T13:20:04;97821.72;;;27.89;100.00